sensor_id;sensor_type;location;lat;lon;timestamp;pressure;altitude;pressure_sealevel;temperature;humidity
58967;BME280;44744;51.894;5.080;2023-09-19T00:00:13;100819.55;;;15.57;83.29
58967;BME280;44744;51.894;5.080;2023-09-19T00:01:14;100817.05;;;15.57;83.41
58967;BME280;44744;51.894;5.080;2023-09-19T00:02:14;100818.14;;;15.57;83.29
58967;BME280;44744;51.894;5.080;2023-09-19T00:03:15;100819.88;;;15.58;83.47
58967;BME280;44744;51.894;5.080;2023-09-19T00:04:15;100819.55;;;15.57;83.51
58967;BME280;44744;51.894;5.080;2023-09-19T00:05:16;100823.64;;;15.57;83.57
58967;BME280;44744;51.894;5.080;2023-09-19T00:06:16;100819.20;;;15.57;83.55
58967;BME280;44744;51.894;5.080;2023-09-19T00:07:19;100821.81;;;15.58;83.58
58967;BME280;44744;51.894;5.080;2023-09-19T00:08:19;100821.05;;;15.58;83.78
58967;BME280;44744;51.894;5.080;2023-09-19T00:09:19;100820.49;;;15.59;83.80
58967;BME280;44744;51.894;5.080;2023-09-19T00:10:23;100826.95;;;15.58;83.80
58967;BME280;44744;51.894;5.080;2023-09-19T00:11:23;100829.57;;;15.57;83.90
58967;BME280;44744;51.894;5.080;2023-09-19T00:12:24;100835.45;;;15.57;83.83
58967;BME280;44744;51.894;5.080;2023-09-19T00:13:24;100838.12;;;15.57;84.10
58967;BME280;44744;51.894;5.080;2023-09-19T00:14:25;100838.71;;;15.56;84.04
58967;BME280;44744;51.894;5.080;2023-09-19T00:15:26;100835.33;;;15.56;84.02
58967;BME280;44744;51.894;5.080;2023-09-19T00:16:26;100839.92;;;15.57;84.07
58967;BME280;44744;51.894;5.080;2023-09-19T00:17:27;100842.89;;;15.57;84.16
58967;BME280;44744;51.894;5.080;2023-09-19T00:18:27;100841.16;;;15.59;83.98
58967;BME280;44744;51.894;5.080;2023-09-19T00:19:29;100842.77;;;15.59;84.16
58967;BME280;44744;51.894;5.080;2023-09-19T00:20:29;100844.48;;;15.60;84.16
58967;BME280;44744;51.894;5.080;2023-09-19T00:21:31;100842.17;;;15.60;84.18
58967;BME280;44744;51.894;5.080;2023-09-19T00:22:32;100842.40;;;15.59;84.27
58967;BME280;44744;51.894;5.080;2023-09-19T00:23:32;100845.95;;;15.59;84.29
58967;BME280;44744;51.894;5.080;2023-09-19T00:24:32;100844.59;;;15.58;84.45
58967;BME280;44744;51.894;5.080;2023-09-19T00:25:33;100847.80;;;15.58;84.47
58967;BME280;44744;51.894;5.080;2023-09-19T00:26:33;100846.02;;;15.58;84.53
58967;BME280;44744;51.894;5.080;2023-09-19T00:27:33;100845.55;;;15.57;84.59
58967;BME280;44744;51.894;5.080;2023-09-19T00:28:34;100843.77;;;15.58;84.64
58967;BME280;44744;51.894;5.080;2023-09-19T00:29:34;100843.71;;;15.56;84.47
58967;BME280;44744;51.894;5.080;2023-09-19T00:30:34;100845.73;;;15.57;84.53
58967;BME280;44744;51.894;5.080;2023-09-19T00:31:35;100842.89;;;15.57;84.67
58967;BME280;44744;51.894;5.080;2023-09-19T00:32:35;100847.95;;;15.59;84.60
58967;BME280;44744;51.894;5.080;2023-09-19T00:33:36;100849.31;;;15.60;84.67
58967;BME280;44744;51.894;5.080;2023-09-19T00:34:36;100843.16;;;15.59;84.69
58967;BME280;44744;51.894;5.080;2023-09-19T00:35:37;100849.19;;;15.59;84.75
58967;BME280;44744;51.894;5.080;2023-09-19T00:36:37;100844.33;;;15.59;84.73
58967;BME280;44744;51.894;5.080;2023-09-19T00:37:38;100847.15;;;15.60;84.76
58967;BME280;44744;51.894;5.080;2023-09-19T00:38:38;100847.45;;;15.61;84.84
58967;BME280;44744;51.894;5.080;2023-09-19T00:39:38;100850.36;;;15.62;84.91
58967;BME280;44744;51.894;5.080;2023-09-19T00:40:45;100851.63;;;15.62;84.94
58967;BME280;44744;51.894;5.080;2023-09-19T00:41:46;100850.04;;;15.62;85.11
58967;BME280;44744;51.894;5.080;2023-09-19T00:42:47;100850.82;;;15.61;85.10
58967;BME280;44744;51.894;5.080;2023-09-19T00:43:48;100849.55;;;15.61;85.23
58967;BME280;44744;51.894;5.080;2023-09-19T00:44:49;100850.67;;;15.61;85.18
58967;BME280;44744;51.894;5.080;2023-09-19T00:45:51;100854.51;;;15.62;85.27
58967;BME280;44744;51.894;5.080;2023-09-19T00:46:53;100857.77;;;15.63;85.31
58967;BME280;44744;51.894;5.080;2023-09-19T00:47:53;100855.81;;;15.63;85.38
58967;BME280;44744;51.894;5.080;2023-09-19T00:48:54;100861.69;;;15.63;85.33
58967;BME280;44744;51.894;5.080;2023-09-19T00:49:55;100858.57;;;15.62;85.53
58967;BME280;44744;51.894;5.080;2023-09-19T00:50:58;100856.98;;;15.61;85.50
58967;BME280;44744;51.894;5.080;2023-09-19T00:52:02;100859.11;;;15.62;85.45
58967;BME280;44744;51.894;5.080;2023-09-19T00:53:03;100859.69;;;15.61;85.42
58967;BME280;44744;51.894;5.080;2023-09-19T00:54:03;100864.20;;;15.63;85.43
58967;BME280;44744;51.894;5.080;2023-09-19T00:55:10;100860.63;;;15.63;85.48
58967;BME280;44744;51.894;5.080;2023-09-19T00:56:11;100863.70;;;15.62;85.45
58967;BME280;44744;51.894;5.080;2023-09-19T00:57:11;100864.48;;;15.62;85.28
58967;BME280;44744;51.894;5.080;2023-09-19T00:58:12;100862.81;;;15.62;85.50
58967;BME280;44744;51.894;5.080;2023-09-19T00:59:12;100866.27;;;15.62;85.49
58967;BME280;44744;51.894;5.080;2023-09-19T01:00:12;100868.88;;;15.62;85.45
58967;BME280;44744;51.894;5.080;2023-09-19T01:01:13;100871.29;;;15.61;85.53
58967;BME280;44744;51.894;5.080;2023-09-19T01:02:14;100876.52;;;15.60;85.46
58967;BME280;44744;51.894;5.080;2023-09-19T01:03:15;100872.60;;;15.60;85.42
58967;BME280;44744;51.894;5.080;2023-09-19T01:04:16;100873.89;;;15.60;85.31
58967;BME280;44744;51.894;5.080;2023-09-19T01:05:16;100875.48;;;15.60;85.42
58967;BME280;44744;51.894;5.080;2023-09-19T01:06:16;100872.64;;;15.60;85.20
58967;BME280;44744;51.894;5.080;2023-09-19T01:07:17;100879.79;;;15.60;85.43
58967;BME280;44744;51.894;5.080;2023-09-19T01:08:17;100879.48;;;15.59;85.36
58967;BME280;44744;51.894;5.080;2023-09-19T01:09:18;100878.73;;;15.59;85.02
58967;BME280;44744;51.894;5.080;2023-09-19T01:10:19;100880.17;;;15.59;85.18
58967;BME280;44744;51.894;5.080;2023-09-19T01:11:21;100877.77;;;15.58;85.02
58967;BME280;44744;51.894;5.080;2023-09-19T01:16:36;100881.96;;;15.49;84.42
58967;BME280;44744;51.894;5.080;2023-09-19T01:17:48;100881.42;;;15.47;84.37
58967;BME280;44744;51.894;5.080;2023-09-19T01:20:21;100881.21;;;15.43;84.02
58967;BME280;44744;51.894;5.080;2023-09-19T01:21:44;100883.31;;;15.41;84.04
58967;BME280;44744;51.894;5.080;2023-09-19T01:30:20;100895.87;;;15.30;83.60
58967;BME280;44744;51.894;5.080;2023-09-19T01:31:22;100896.04;;;15.28;83.47
58967;BME280;44744;51.894;5.080;2023-09-19T01:32:23;100897.30;;;15.28;83.26
58967;BME280;44744;51.894;5.080;2023-09-19T01:33:24;100896.96;;;15.28;83.33
58967;BME280;44744;51.894;5.080;2023-09-19T01:34:25;100897.81;;;15.28;83.15
58967;BME280;44744;51.894;5.080;2023-09-19T01:35:25;100893.06;;;15.29;83.12
58967;BME280;44744;51.894;5.080;2023-09-19T01:36:31;100890.93;;;15.29;83.04
58967;BME280;44744;51.894;5.080;2023-09-19T01:37:32;100892.73;;;15.29;82.93
58967;BME280;44744;51.894;5.080;2023-09-19T01:38:32;100888.98;;;15.27;82.52
58967;BME280;44744;51.894;5.080;2023-09-19T01:39:32;100888.45;;;15.24;82.52
58967;BME280;44744;51.894;5.080;2023-09-19T01:40:33;100892.88;;;15.25;82.57
58967;BME280;44744;51.894;5.080;2023-09-19T01:43:21;100895.24;;;15.22;82.18
58967;BME280;44744;51.894;5.080;2023-09-19T01:44:34;100895.84;;;15.18;82.07
58967;BME280;44744;51.894;5.080;2023-09-19T01:45:52;100896.88;;;15.14;82.03
58967;BME280;44744;51.894;5.080;2023-09-19T01:47:01;100896.70;;;15.12;82.07
58967;BME280;44744;51.894;5.080;2023-09-19T01:49:41;100897.51;;;15.06;81.77
58967;BME280;44744;51.894;5.080;2023-09-19T01:50:59;100897.17;;;15.02;81.79
58967;BME280;44744;51.894;5.080;2023-09-19T01:52:12;100895.88;;;15.01;81.76
58967;BME280;44744;51.894;5.080;2023-09-19T01:53:23;100896.21;;;14.99;81.76
58967;BME280;44744;51.894;5.080;2023-09-19T01:54:30;100900.47;;;14.99;81.59
58967;BME280;44744;51.894;5.080;2023-09-19T01:55:37;100899.61;;;14.98;81.66
58967;BME280;44744;51.894;5.080;2023-09-19T01:56:50;100899.83;;;14.98;81.43
58967;BME280;44744;51.894;5.080;2023-09-19T01:58:01;100902.48;;;14.96;81.15
58967;BME280;44744;51.894;5.080;2023-09-19T01:59:09;100907.92;;;14.94;81.36
58967;BME280;44744;51.894;5.080;2023-09-19T02:00:12;100907.48;;;14.93;81.14
58967;BME280;44744;51.894;5.080;2023-09-19T02:01:20;100905.46;;;14.92;81.06
58967;BME280;44744;51.894;5.080;2023-09-19T02:02:23;100908.21;;;14.90;80.92
58967;BME280;44744;51.894;5.080;2023-09-19T02:03:25;100904.52;;;14.87;80.69
58967;BME280;44744;51.894;5.080;2023-09-19T02:04:27;100906.41;;;14.85;80.81
58967;BME280;44744;51.894;5.080;2023-09-19T02:05:27;100904.41;;;14.84;80.77
58967;BME280;44744;51.894;5.080;2023-09-19T02:06:27;100903.07;;;14.83;80.60
58967;BME280;44744;51.894;5.080;2023-09-19T02:07:30;100911.14;;;14.82;80.77
58967;BME280;44744;51.894;5.080;2023-09-19T02:08:31;100909.27;;;14.80;80.61
58967;BME280;44744;51.894;5.080;2023-09-19T02:09:31;100910.38;;;14.80;80.73
58967;BME280;44744;51.894;5.080;2023-09-19T02:10:32;100912.19;;;14.79;80.29
58967;BME280;44744;51.894;5.080;2023-09-19T02:11:32;100909.44;;;14.78;80.49
58967;BME280;44744;51.894;5.080;2023-09-19T02:12:34;100908.41;;;14.77;80.41
58967;BME280;44744;51.894;5.080;2023-09-19T02:13:37;100905.86;;;14.76;80.31
58967;BME280;44744;51.894;5.080;2023-09-19T02:14:37;100909.45;;;14.76;80.12
58967;BME280;44744;51.894;5.080;2023-09-19T02:15:38;100907.33;;;14.75;80.21
58967;BME280;44744;51.894;5.080;2023-09-19T02:16:41;100905.27;;;14.74;79.92
58967;BME280;44744;51.894;5.080;2023-09-19T02:17:44;100906.73;;;14.74;80.27
58967;BME280;44744;51.894;5.080;2023-09-19T02:18:44;100907.41;;;14.74;79.97
58967;BME280;44744;51.894;5.080;2023-09-19T02:19:45;100902.19;;;14.73;79.61
58967;BME280;44744;51.894;5.080;2023-09-19T02:20:45;100904.47;;;14.71;79.45
58967;BME280;44744;51.894;5.080;2023-09-19T02:21:46;100904.79;;;14.68;79.48
58967;BME280;44744;51.894;5.080;2023-09-19T02:22:47;100909.52;;;14.67;79.33
58967;BME280;44744;51.894;5.080;2023-09-19T02:23:47;100906.39;;;14.66;79.29
58967;BME280;44744;51.894;5.080;2023-09-19T02:24:48;100909.73;;;14.64;79.07
58967;BME280;44744;51.894;5.080;2023-09-19T02:25:52;100913.58;;;14.62;78.88
58967;BME280;44744;51.894;5.080;2023-09-19T02:26:53;100911.57;;;14.60;78.89
58967;BME280;44744;51.894;5.080;2023-09-19T02:27:53;100913.09;;;14.59;78.98
58967;BME280;44744;51.894;5.080;2023-09-19T02:28:53;100915.98;;;14.58;79.07
58967;BME280;44744;51.894;5.080;2023-09-19T02:29:54;100911.10;;;14.57;78.92
58967;BME280;44744;51.894;5.080;2023-09-19T02:30:54;100912.56;;;14.56;78.92
58967;BME280;44744;51.894;5.080;2023-09-19T02:31:54;100913.44;;;14.57;78.58
58967;BME280;44744;51.894;5.080;2023-09-19T02:32:54;100913.35;;;14.55;78.46
58967;BME280;44744;51.894;5.080;2023-09-19T02:33:55;100916.95;;;14.55;78.23
58967;BME280;44744;51.894;5.080;2023-09-19T02:34:55;100916.52;;;14.53;78.01
58967;BME280;44744;51.894;5.080;2023-09-19T02:35:56;100916.01;;;14.50;78.15
58967;BME280;44744;51.894;5.080;2023-09-19T02:36:58;100908.66;;;14.48;78.16
58967;BME280;44744;51.894;5.080;2023-09-19T02:37:58;100915.10;;;14.48;78.18
58967;BME280;44744;51.894;5.080;2023-09-19T02:38:59;100911.63;;;14.47;78.17
58967;BME280;44744;51.894;5.080;2023-09-19T02:39:59;100913.21;;;14.47;78.08
58967;BME280;44744;51.894;5.080;2023-09-19T02:40:59;100914.36;;;14.46;77.91
58967;BME280;44744;51.894;5.080;2023-09-19T02:42:00;100915.44;;;14.46;78.17
58967;BME280;44744;51.894;5.080;2023-09-19T02:43:00;100917.25;;;14.45;78.08
58967;BME280;44744;51.894;5.080;2023-09-19T02:44:01;100919.45;;;14.44;77.79
58967;BME280;44744;51.894;5.080;2023-09-19T02:45:02;100916.85;;;14.43;77.85
58967;BME280;44744;51.894;5.080;2023-09-19T02:46:02;100922.73;;;14.43;77.56
58967;BME280;44744;51.894;5.080;2023-09-19T02:47:02;100919.95;;;14.42;77.58
58967;BME280;44744;51.894;5.080;2023-09-19T02:48:03;100924.05;;;14.42;77.77
58967;BME280;44744;51.894;5.080;2023-09-19T02:49:04;100924.02;;;14.42;77.69
58967;BME280;44744;51.894;5.080;2023-09-19T02:50:33;100920.47;;;14.42;77.66
58967;BME280;44744;51.894;5.080;2023-09-19T02:51:33;100923.61;;;14.41;77.28
58967;BME280;44744;51.894;5.080;2023-09-19T02:52:33;100927.61;;;14.39;77.64
58967;BME280;44744;51.894;5.080;2023-09-19T02:53:34;100923.21;;;14.39;77.37
58967;BME280;44744;51.894;5.080;2023-09-19T02:54:34;100924.84;;;14.38;77.45
58967;BME280;44744;51.894;5.080;2023-09-19T02:55:37;100926.48;;;14.38;77.39
58967;BME280;44744;51.894;5.080;2023-09-19T02:56:38;100925.48;;;14.37;77.10
58967;BME280;44744;51.894;5.080;2023-09-19T02:57:38;100915.88;;;14.34;77.09
58967;BME280;44744;51.894;5.080;2023-09-19T02:58:39;100924.21;;;14.34;77.01
58967;BME280;44744;51.894;5.080;2023-09-19T02:59:42;100925.95;;;14.35;77.21
58967;BME280;44744;51.894;5.080;2023-09-19T03:00:43;100921.70;;;14.34;77.18
58967;BME280;44744;51.894;5.080;2023-09-19T03:01:43;100923.30;;;14.34;77.05
58967;BME280;44744;51.894;5.080;2023-09-19T03:02:44;100919.44;;;14.34;77.05
58967;BME280;44744;51.894;5.080;2023-09-19T03:03:44;100923.59;;;14.33;76.83
58967;BME280;44744;51.894;5.080;2023-09-19T03:04:44;100923.34;;;14.32;76.78
58967;BME280;44744;51.894;5.080;2023-09-19T03:05:45;100921.95;;;14.31;76.71
58967;BME280;44744;51.894;5.080;2023-09-19T03:06:46;100922.41;;;14.29;76.52
58967;BME280;44744;51.894;5.080;2023-09-19T03:07:47;100918.58;;;14.28;76.35
58967;BME280;44744;51.894;5.080;2023-09-19T03:08:48;100918.44;;;14.28;76.20
58967;BME280;44744;51.894;5.080;2023-09-19T03:09:48;100918.20;;;14.26;76.16
58967;BME280;44744;51.894;5.080;2023-09-19T03:10:48;100915.32;;;14.24;76.29
58967;BME280;44744;51.894;5.080;2023-09-19T03:11:49;100917.82;;;14.24;76.28
58967;BME280;44744;51.894;5.080;2023-09-19T03:12:49;100910.50;;;14.22;76.10
58967;BME280;44744;51.894;5.080;2023-09-19T03:13:54;100914.33;;;14.21;75.94
58967;BME280;44744;51.894;5.080;2023-09-19T03:14:55;100910.85;;;14.19;75.87
58967;BME280;44744;51.894;5.080;2023-09-19T03:15:55;100912.21;;;14.18;75.98
58967;BME280;44744;51.894;5.080;2023-09-19T03:16:55;100910.16;;;14.16;75.97
58967;BME280;44744;51.894;5.080;2023-09-19T03:17:56;100909.41;;;14.17;75.84
58967;BME280;44744;51.894;5.080;2023-09-19T03:18:56;100910.38;;;14.16;75.85
58967;BME280;44744;51.894;5.080;2023-09-19T03:19:56;100910.61;;;14.15;75.73
58967;BME280;44744;51.894;5.080;2023-09-19T03:20:57;100909.77;;;14.14;75.48
58967;BME280;44744;51.894;5.080;2023-09-19T03:22:06;100910.77;;;14.13;75.51
58967;BME280;44744;51.894;5.080;2023-09-19T03:23:06;100906.73;;;14.12;75.64
58967;BME280;44744;51.894;5.080;2023-09-19T03:24:07;100909.48;;;14.11;75.74
58967;BME280;44744;51.894;5.080;2023-09-19T03:25:07;100911.73;;;14.11;75.61
58967;BME280;44744;51.894;5.080;2023-09-19T03:26:08;100911.80;;;14.11;75.38
58967;BME280;44744;51.894;5.080;2023-09-19T03:27:11;100906.88;;;14.10;75.72
58967;BME280;44744;51.894;5.080;2023-09-19T03:28:11;100913.77;;;14.11;75.46
58967;BME280;44744;51.894;5.080;2023-09-19T03:29:11;100911.19;;;14.09;75.32
58967;BME280;44744;51.894;5.080;2023-09-19T03:30:12;100914.02;;;14.10;75.34
58967;BME280;44744;51.894;5.080;2023-09-19T03:31:12;100916.28;;;14.10;75.16
58967;BME280;44744;51.894;5.080;2023-09-19T03:32:12;100913.38;;;14.08;75.30
58967;BME280;44744;51.894;5.080;2023-09-19T03:33:14;100912.98;;;14.09;75.15
58967;BME280;44744;51.894;5.080;2023-09-19T03:34:15;100915.30;;;14.09;75.31
58967;BME280;44744;51.894;5.080;2023-09-19T03:35:16;100916.18;;;14.09;75.36
58967;BME280;44744;51.894;5.080;2023-09-19T03:36:16;100915.12;;;14.09;75.32
58967;BME280;44744;51.894;5.080;2023-09-19T03:37:16;100916.02;;;14.09;75.03
58967;BME280;44744;51.894;5.080;2023-09-19T03:38:17;100915.81;;;14.09;75.16
58967;BME280;44744;51.894;5.080;2023-09-19T03:39:17;100908.36;;;14.07;75.16
58967;BME280;44744;51.894;5.080;2023-09-19T03:40:18;100911.98;;;14.08;75.00
58967;BME280;44744;51.894;5.080;2023-09-19T03:41:18;100910.75;;;14.08;74.82
58967;BME280;44744;51.894;5.080;2023-09-19T03:42:18;100906.79;;;14.06;74.95
58967;BME280;44744;51.894;5.080;2023-09-19T03:43:21;100905.10;;;14.07;75.11
58967;BME280;44744;51.894;5.080;2023-09-19T03:44:21;100907.64;;;14.07;74.97
58967;BME280;44744;51.894;5.080;2023-09-19T03:45:22;100905.02;;;14.06;74.80
58967;BME280;44744;51.894;5.080;2023-09-19T03:46:22;100906.89;;;14.05;75.01
58967;BME280;44744;51.894;5.080;2023-09-19T03:47:23;100901.98;;;14.04;74.81
58967;BME280;44744;51.894;5.080;2023-09-19T03:48:23;100899.83;;;14.04;74.78
58967;BME280;44744;51.894;5.080;2023-09-19T03:49:24;100901.98;;;14.04;74.66
58967;BME280;44744;51.894;5.080;2023-09-19T03:50:28;100900.44;;;14.03;74.76
58967;BME280;44744;51.894;5.080;2023-09-19T03:51:28;100896.46;;;14.01;74.94
58967;BME280;44744;51.894;5.080;2023-09-19T03:52:28;100898.98;;;14.00;74.81
58967;BME280;44744;51.894;5.080;2023-09-19T03:53:28;100899.38;;;13.99;74.62
58967;BME280;44744;51.894;5.080;2023-09-19T03:54:29;100897.82;;;13.99;74.45
58967;BME280;44744;51.894;5.080;2023-09-19T03:55:29;100895.27;;;13.97;74.36
58967;BME280;44744;51.894;5.080;2023-09-19T03:56:30;100901.79;;;13.96;74.53
58967;BME280;44744;51.894;5.080;2023-09-19T03:57:40;100897.24;;;13.97;74.42
58967;BME280;44744;51.894;5.080;2023-09-19T03:58:40;100902.27;;;13.97;74.41
58967;BME280;44744;51.894;5.080;2023-09-19T03:59:41;100905.18;;;13.96;74.31
58967;BME280;44744;51.894;5.080;2023-09-19T04:00:41;100909.27;;;13.95;74.41
58967;BME280;44744;51.894;5.080;2023-09-19T04:01:42;100910.21;;;13.95;74.16
58967;BME280;44744;51.894;5.080;2023-09-19T04:02:42;100909.23;;;13.93;74.15
58967;BME280;44744;51.894;5.080;2023-09-19T04:03:43;100910.66;;;13.93;74.40
58967;BME280;44744;51.894;5.080;2023-09-19T04:04:46;100916.84;;;13.94;74.41
58967;BME280;44744;51.894;5.080;2023-09-19T04:05:47;100916.16;;;13.94;74.33
58967;BME280;44744;51.894;5.080;2023-09-19T04:06:47;100919.06;;;13.93;74.31
58967;BME280;44744;51.894;5.080;2023-09-19T04:07:48;100921.52;;;13.93;74.27
58967;BME280;44744;51.894;5.080;2023-09-19T04:08:48;100925.82;;;13.93;74.26
58967;BME280;44744;51.894;5.080;2023-09-19T04:09:48;100924.01;;;13.93;74.37
58967;BME280;44744;51.894;5.080;2023-09-19T04:10:49;100924.08;;;13.92;74.42
58967;BME280;44744;51.894;5.080;2023-09-19T04:11:55;100931.00;;;13.92;74.23
58967;BME280;44744;51.894;5.080;2023-09-19T04:12:56;100934.17;;;13.92;74.12
58967;BME280;44744;51.894;5.080;2023-09-19T04:14:03;100934.74;;;13.92;74.31
58967;BME280;44744;51.894;5.080;2023-09-19T04:15:05;100938.52;;;13.91;74.16
58967;BME280;44744;51.894;5.080;2023-09-19T04:16:06;100934.88;;;13.90;74.32
58967;BME280;44744;51.894;5.080;2023-09-19T04:17:06;100941.21;;;13.91;74.33
58967;BME280;44744;51.894;5.080;2023-09-19T04:18:06;100941.52;;;13.92;74.16
58967;BME280;44744;51.894;5.080;2023-09-19T04:21:53;100942.38;;;13.84;73.86
58967;BME280;44744;51.894;5.080;2023-09-19T04:22:53;100942.80;;;13.83;74.11
58967;BME280;44744;51.894;5.080;2023-09-19T04:23:53;100949.85;;;13.84;74.13
58967;BME280;44744;51.894;5.080;2023-09-19T04:24:53;100954.52;;;13.83;74.15
58967;BME280;44744;51.894;5.080;2023-09-19T04:25:54;100961.25;;;13.84;74.24
58967;BME280;44744;51.894;5.080;2023-09-19T04:26:54;100960.42;;;13.83;74.18
58967;BME280;44744;51.894;5.080;2023-09-19T04:27:55;100959.91;;;13.82;74.18
58967;BME280;44744;51.894;5.080;2023-09-19T04:28:56;100958.44;;;13.83;74.23
58967;BME280;44744;51.894;5.080;2023-09-19T04:29:56;100960.71;;;13.84;74.12
58967;BME280;44744;51.894;5.080;2023-09-19T04:30:57;100959.95;;;13.85;74.10
58967;BME280;44744;51.894;5.080;2023-09-19T04:31:57;100962.66;;;13.84;73.89
58967;BME280;44744;51.894;5.080;2023-09-19T04:32:57;100965.34;;;13.84;74.05
58967;BME280;44744;51.894;5.080;2023-09-19T04:33:58;100963.62;;;13.83;74.11
58967;BME280;44744;51.894;5.080;2023-09-19T04:34:58;100963.13;;;13.82;74.16
58967;BME280;44744;51.894;5.080;2023-09-19T04:35:59;100961.67;;;13.83;74.36
58967;BME280;44744;51.894;5.080;2023-09-19T04:36:59;100963.11;;;13.82;74.13
58967;BME280;44744;51.894;5.080;2023-09-19T04:38:02;100960.11;;;13.82;74.28
58967;BME280;44744;51.894;5.080;2023-09-19T04:39:03;100962.11;;;13.81;74.08
58967;BME280;44744;51.894;5.080;2023-09-19T04:40:06;100965.84;;;13.82;74.42
58967;BME280;44744;51.894;5.080;2023-09-19T04:41:06;100969.27;;;13.81;74.29
58967;BME280;44744;51.894;5.080;2023-09-19T04:42:06;100969.15;;;13.80;74.36
58967;BME280;44744;51.894;5.080;2023-09-19T04:43:07;100974.34;;;13.79;74.55
58967;BME280;44744;51.894;5.080;2023-09-19T04:44:07;100973.19;;;13.81;74.65
58967;BME280;44744;51.894;5.080;2023-09-19T04:45:08;100973.14;;;13.81;74.66
58967;BME280;44744;51.894;5.080;2023-09-19T04:46:08;100973.11;;;13.82;74.42
58967;BME280;44744;51.894;5.080;2023-09-19T04:47:09;100970.79;;;13.82;74.56
58967;BME280;44744;51.894;5.080;2023-09-19T04:48:09;100971.04;;;13.81;74.63
58967;BME280;44744;51.894;5.080;2023-09-19T04:49:09;100970.09;;;13.82;74.51
58967;BME280;44744;51.894;5.080;2023-09-19T04:50:10;100967.48;;;13.81;74.58
58967;BME280;44744;51.894;5.080;2023-09-19T04:51:21;100970.70;;;13.80;75.00
58967;BME280;44744;51.894;5.080;2023-09-19T04:52:51;100974.92;;;13.81;74.84
58967;BME280;44744;51.894;5.080;2023-09-19T04:53:51;100973.86;;;13.79;74.77
58967;BME280;44744;51.894;5.080;2023-09-19T04:54:52;100971.60;;;13.78;74.97
58967;BME280;44744;51.894;5.080;2023-09-19T04:55:52;100971.44;;;13.78;74.91
58967;BME280;44744;51.894;5.080;2023-09-19T04:56:53;100977.00;;;13.77;75.10
58967;BME280;44744;51.894;5.080;2023-09-19T04:58:01;100979.64;;;13.77;75.20
58967;BME280;44744;51.894;5.080;2023-09-19T04:59:02;100977.26;;;13.78;75.30
58967;BME280;44744;51.894;5.080;2023-09-19T05:00:03;100977.02;;;13.79;75.15
58967;BME280;44744;51.894;5.080;2023-09-19T05:01:08;100974.52;;;13.80;75.41
58967;BME280;44744;51.894;5.080;2023-09-19T05:02:08;100979.14;;;13.79;75.25
58967;BME280;44744;51.894;5.080;2023-09-19T05:03:09;100976.21;;;13.80;75.47
58967;BME280;44744;51.894;5.080;2023-09-19T05:04:16;100983.48;;;13.80;75.39
58967;BME280;44744;51.894;5.080;2023-09-19T05:05:17;100978.86;;;13.81;75.35
58967;BME280;44744;51.894;5.080;2023-09-19T05:06:29;100982.40;;;13.81;75.64
58967;BME280;44744;51.894;5.080;2023-09-19T05:07:30;100981.70;;;13.81;75.70
58967;BME280;44744;51.894;5.080;2023-09-19T05:08:46;100982.04;;;13.82;75.60
58967;BME280;44744;51.894;5.080;2023-09-19T05:10:05;100981.66;;;13.81;75.59
58967;BME280;44744;51.894;5.080;2023-09-19T05:11:09;100981.23;;;13.80;75.61
58967;BME280;44744;51.894;5.080;2023-09-19T05:12:10;100981.59;;;13.80;75.72
58967;BME280;44744;51.894;5.080;2023-09-19T05:13:14;100986.86;;;13.81;75.81
58967;BME280;44744;51.894;5.080;2023-09-19T05:14:17;100981.54;;;13.81;75.83
58967;BME280;44744;51.894;5.080;2023-09-19T05:15:41;100980.64;;;13.81;75.80
58967;BME280;44744;51.894;5.080;2023-09-19T05:16:42;100976.99;;;13.82;75.95
58967;BME280;44744;51.894;5.080;2023-09-19T05:17:50;100975.42;;;13.82;75.81
58967;BME280;44744;51.894;5.080;2023-09-19T05:18:50;100982.40;;;13.84;75.91
58967;BME280;44744;51.894;5.080;2023-09-19T05:19:57;100988.64;;;13.83;75.91
58967;BME280;44744;51.894;5.080;2023-09-19T05:21:01;100989.84;;;13.84;75.88
58967;BME280;44744;51.894;5.080;2023-09-19T05:22:27;100985.64;;;13.83;75.95
58967;BME280;44744;51.894;5.080;2023-09-19T05:23:27;100987.66;;;13.82;75.94
58967;BME280;44744;51.894;5.080;2023-09-19T05:24:28;100988.58;;;13.82;75.94
58967;BME280;44744;51.894;5.080;2023-09-19T05:25:31;100989.13;;;13.82;76.03
58967;BME280;44744;51.894;5.080;2023-09-19T05:27:43;100991.52;;;13.83;76.03
58967;BME280;44744;51.894;5.080;2023-09-19T05:29:58;100990.22;;;13.84;76.26
58967;BME280;44744;51.894;5.080;2023-09-19T05:31:03;100990.73;;;13.84;76.23
58967;BME280;44744;51.894;5.080;2023-09-19T05:32:04;100981.88;;;13.84;76.22
58967;BME280;44744;51.894;5.080;2023-09-19T05:33:05;100982.52;;;13.85;76.24
58967;BME280;44744;51.894;5.080;2023-09-19T05:34:08;100985.85;;;13.86;76.38
58967;BME280;44744;51.894;5.080;2023-09-19T05:35:09;100985.24;;;13.86;76.42
58967;BME280;44744;51.894;5.080;2023-09-19T05:36:09;100983.98;;;13.87;76.46
58967;BME280;44744;51.894;5.080;2023-09-19T05:37:10;100982.14;;;13.88;76.45
58967;BME280;44744;51.894;5.080;2023-09-19T05:39:10;100977.23;;;13.89;76.57
58967;BME280;44744;51.894;5.080;2023-09-19T05:40:10;100977.02;;;13.90;76.42
58967;BME280;44744;51.894;5.080;2023-09-19T05:41:11;100976.88;;;13.89;76.55
58967;BME280;44744;51.894;5.080;2023-09-19T05:42:11;100979.59;;;13.89;76.62
58967;BME280;44744;51.894;5.080;2023-09-19T05:43:14;100979.23;;;13.89;77.07
58967;BME280;44744;51.894;5.080;2023-09-19T05:44:15;100977.48;;;13.88;76.83
58967;BME280;44744;51.894;5.080;2023-09-19T05:45:16;100972.95;;;13.87;76.79
58967;BME280;44744;51.894;5.080;2023-09-19T05:46:20;100976.10;;;13.88;76.77
58967;BME280;44744;51.894;5.080;2023-09-19T05:47:21;100969.89;;;13.87;76.64